Decoded Metar for CYBU (NIPAWIN AIRPORT in SK, CANADA) (IATA:YBU) | Meteo·Mobile Aviation Weather
aviador You're here:

CYBU Decoded Metar

NIPAWIN AIRPORT in SK, CANADA
Report Time2019-10-19 21:00:00
UTC Time2019-10-19 21:56:48
Flight Rules vfr VFR
Wind270° at 10 kt
W.Decomp.*RWY 30: 7.8 kt HW 6.3 kt LCW
RWY 21: 6.3 kt HW 7.8 kt RCW
Visibility9999 m
Phenomena:N/A
Clouds:N/A
Expected CloudBase > 6,000 ft AGL from Temp-Dew spread
CeilingNone
Temp14°C (ISA +1)
Dew Point-1°C (36% RH)
AAT8.3°C
QNH998 hPa
Density Alt1,988 ft
Elevation1,227 ft
Report Wrong Elevation
Raw Report
CYBU 192100Z AUTO 27010KT 9SM CLR 14/M01 A2946 RMK SLP989 DENSITY
ALT 1900FT=

Extra information for CYBU:More info

Metar Taf Metar & Taf Last 4 Metars F.Rules Stats Wind Profile Meteogram Temp Stats Airport Information Weather charts Add Link Nearby VenuesMetar ALERT Operation Metar Decoded Social comments